Flughafen Wetterinformationen

LTBA 272150Z 27004KT 230V330 9999 -SHRA FEW015 BKN035 BKN070 11/08 Q1014 NOSIG

VATSIM Feed

Card image cap

ATC Buchungen

Position Name Datum Zeit in UTC
LTC_S_CTR Ben Wright 29/01/2020 1800 ‐ 2100
LTC_N_CTR Ben Wright 29/01/2020 1800 ‐ 2100
LTC_N_CTR Ben Wright 01/02/2020 1700 ‐ 2200
LTC_S_CTR Ben Wright 01/02/2020 1700 ‐ 2200
LTC_N_CTR Ben Wright 05/02/2020 1800 ‐ 2100
LTC_S_CTR Ben Wright 05/02/2020 1800 ‐ 2100

Card image cap

Aktive Flugsicherung

Derzeit sind keine Fluglotsen Online

Blog

Read our latest news and get to know us better.